sensor_id;sensor_type;location;lat;lon;timestamp;temperature;humidity
63407;SHT31;49543;45.892;10.838;2022-11-20T07:17:02;7.90;72.74
63407;SHT31;49543;45.892;10.838;2022-11-20T07:19:27;8.14;71.78
63407;SHT31;49543;45.892;10.838;2022-11-20T07:21:53;8.35;71.12
63407;SHT31;49543;45.892;10.838;2022-11-20T07:24:18;8.50;70.71
63407;SHT31;49543;45.892;10.838;2022-11-20T07:26:45;8.46;69.77
63407;SHT31;49543;45.892;10.838;2022-11-20T07:29:11;8.72;67.61
63407;SHT31;49543;45.892;10.838;2022-11-20T07:31:36;8.96;66.39
63407;SHT31;49543;45.892;10.838;2022-11-20T07:34:01;9.19;66.12
63407;SHT31;49543;45.892;10.838;2022-11-20T07:36:27;9.35;64.59
63407;SHT31;49543;45.892;10.838;2022-11-20T07:38:52;9.55;65.87
63407;SHT31;49543;45.892;10.838;2022-11-20T07:41:18;9.72;64.01
63407;SHT31;49543;45.892;10.838;2022-11-20T07:43:43;9.90;64.49
63407;SHT31;49543;45.892;10.838;2022-11-20T07:46:08;10.07;65.11
63407;SHT31;49543;45.892;10.838;2022-11-20T07:48:33;10.07;65.93
63407;SHT31;49543;45.892;10.838;2022-11-20T07:50:59;10.41;64.35
63407;SHT31;49543;45.892;10.838;2022-11-20T07:53:24;10.73;61.95
63407;SHT31;49543;45.892;10.838;2022-11-20T07:55:49;10.77;60.07
63407;SHT31;49543;45.892;10.838;2022-11-20T07:58:17;10.86;60.14
63407;SHT31;49543;45.892;10.838;2022-11-20T08:00:43;10.97;59.84
63407;SHT31;49543;45.892;10.838;2022-11-20T08:03:08;11.06;59.21
63407;SHT31;49543;45.892;10.838;2022-11-20T10:33:57;20.51;42.87
63407;SHT31;49543;45.892;10.838;2022-11-20T10:36:33;20.86;42.76
63407;SHT31;49543;45.892;10.838;2022-11-20T10:42:34;19.91;43.30
63407;SHT31;49543;45.892;10.838;2022-11-20T10:45:13;19.73;43.79
63407;SHT31;49543;45.892;10.838;2022-11-20T10:47:41;19.96;42.72
63407;SHT31;49543;45.892;10.838;2022-11-20T10:50:12;19.72;43.92
63407;SHT31;49543;45.892;10.838;2022-11-20T10:57:57;20.51;44.24
63407;SHT31;49543;45.892;10.838;2022-11-20T11:00:27;20.76;43.40
63407;SHT31;49543;45.892;10.838;2022-11-20T11:02:52;20.10;43.20
63407;SHT31;49543;45.892;10.838;2022-11-20T11:07:48;20.77;42.07
63407;SHT31;49543;45.892;10.838;2022-11-20T11:12:46;20.58;41.31
63407;SHT31;49543;45.892;10.838;2022-11-20T11:15:40;20.82;41.82
63407;SHT31;49543;45.892;10.838;2022-11-20T11:18:10;21.11;42.52
63407;SHT31;49543;45.892;10.838;2022-11-20T11:20:36;21.13;43.00
63407;SHT31;49543;45.892;10.838;2022-11-20T11:23:01;21.27;41.99
63407;SHT31;49543;45.892;10.838;2022-11-20T11:27:53;21.85;40.15
63407;SHT31;49543;45.892;10.838;2022-11-20T11:30:21;21.86;40.76
63407;SHT31;49543;45.892;10.838;2022-11-20T11:32:47;21.92;40.22
63407;SHT31;49543;45.892;10.838;2022-11-20T11:35:23;22.03;39.57
63407;SHT31;49543;45.892;10.838;2022-11-20T11:37:48;22.09;40.19
63407;SHT31;49543;45.892;10.838;2022-11-20T11:40:14;22.30;39.67
63407;SHT31;49543;45.892;10.838;2022-11-20T11:42:44;22.18;39.12
63407;SHT31;49543;45.892;10.838;2022-11-20T11:45:14;21.81;38.93
63407;SHT31;49543;45.892;10.838;2022-11-20T11:53:30;21.40;40.08
63407;SHT31;49543;45.892;10.838;2022-11-20T12:03:37;20.65;44.21
63407;SHT31;49543;45.892;10.838;2022-11-20T12:06:15;20.34;44.48
63407;SHT31;49543;45.892;10.838;2022-11-20T12:08:46;20.41;41.76
63407;SHT31;49543;45.892;10.838;2022-11-20T12:11:18;20.75;41.64
63407;SHT31;49543;45.892;10.838;2022-11-20T12:13:48;21.17;39.31
63407;SHT31;49543;45.892;10.838;2022-11-20T12:16:17;21.35;43.47
63407;SHT31;49543;45.892;10.838;2022-11-20T12:18:44;21.59;42.30
63407;SHT31;49543;45.892;10.838;2022-11-20T12:26:18;18.21;47.13
63407;SHT31;49543;45.892;10.838;2022-11-20T12:34:06;16.80;51.70
63407;SHT31;49543;45.892;10.838;2022-11-20T12:39:08;16.08;53.57
63407;SHT31;49543;45.892;10.838;2022-11-20T12:47:22;15.39;56.92
63407;SHT31;49543;45.892;10.838;2022-11-20T12:52:53;15.03;56.05
63407;SHT31;49543;45.892;10.838;2022-11-20T12:58:01;14.91;56.31
63407;SHT31;49543;45.892;10.838;2022-11-20T13:00:30;14.54;57.29
63407;SHT31;49543;45.892;10.838;2022-11-20T13:08:15;14.61;56.83
63407;SHT31;49543;45.892;10.838;2022-11-20T13:15:48;14.44;60.83
63407;SHT31;49543;45.892;10.838;2022-11-20T13:18:16;14.48;59.30
63407;SHT31;49543;45.892;10.838;2022-11-20T13:20:42;14.36;58.28
63407;SHT31;49543;45.892;10.838;2022-11-20T13:23:08;14.30;59.46
63407;SHT31;49543;45.892;10.838;2022-11-20T13:25:34;14.33;58.37
63407;SHT31;49543;45.892;10.838;2022-11-20T13:28:01;14.27;59.57
63407;SHT31;49543;45.892;10.838;2022-11-20T13:30:28;14.26;59.42
63407;SHT31;49543;45.892;10.838;2022-11-20T13:32:57;14.24;60.41
63407;SHT31;49543;45.892;10.838;2022-11-20T13:35:35;14.02;60.76
63407;SHT31;49543;45.892;10.838;2022-11-20T13:38:02;13.93;61.75
63407;SHT31;49543;45.892;10.838;2022-11-20T13:40:28;13.71;62.27
63407;SHT31;49543;45.892;10.838;2022-11-20T13:45:23;13.54;62.88
63407;SHT31;49543;45.892;10.838;2022-11-20T13:47:49;13.21;64.66
63407;SHT31;49543;45.892;10.838;2022-11-20T13:50:15;13.24;64.14
63407;SHT31;49543;45.892;10.838;2022-11-20T14:00:23;13.16;62.22
63407;SHT31;49543;45.892;10.838;2022-11-20T14:05:19;13.13;63.36
63407;SHT31;49543;45.892;10.838;2022-11-20T14:07:46;13.24;62.83
63407;SHT31;49543;45.892;10.838;2022-11-20T14:10:22;13.23;61.40
63407;SHT31;49543;45.892;10.838;2022-11-20T14:12:48;13.16;61.59
63407;SHT31;49543;45.892;10.838;2022-11-20T14:15:26;13.21;61.78
63407;SHT31;49543;45.892;10.838;2022-11-20T14:17:52;13.16;62.38
63407;SHT31;49543;45.892;10.838;2022-11-20T14:20:17;13.04;62.21
63407;SHT31;49543;45.892;10.838;2022-11-20T14:22:51;13.09;61.22
63407;SHT31;49543;45.892;10.838;2022-11-20T14:27:43;12.92;61.45
63407;SHT31;49543;45.892;10.838;2022-11-20T14:30:14;12.82;61.76
63407;SHT31;49543;45.892;10.838;2022-11-20T14:32:39;12.69;61.68
63407;SHT31;49543;45.892;10.838;2022-11-20T14:35:10;12.69;61.69
63407;SHT31;49543;45.892;10.838;2022-11-20T14:37:38;12.81;61.76
63407;SHT31;49543;45.892;10.838;2022-11-20T14:40:26;12.93;62.13
63407;SHT31;49543;45.892;10.838;2022-11-20T14:42:49;12.82;62.38
63407;SHT31;49543;45.892;10.838;2022-11-20T14:45:15;12.93;61.57
63407;SHT31;49543;45.892;10.838;2022-11-20T14:47:41;12.86;61.96
63407;SHT31;49543;45.892;10.838;2022-11-20T16:11:41;11.63;65.48
63407;SHT31;49543;45.892;10.838;2022-11-20T16:14:10;11.65;66.17
63407;SHT31;49543;45.892;10.838;2022-11-20T16:16:54;11.65;67.57
63407;SHT31;49543;45.892;10.838;2022-11-20T16:19:19;11.59;66.82
63407;SHT31;49543;45.892;10.838;2022-11-20T16:21:45;11.65;67.79
63407;SHT31;49543;45.892;10.838;2022-11-20T16:24:12;11.62;67.28
63407;SHT31;49543;45.892;10.838;2022-11-20T16:26:38;11.57;67.23
63407;SHT31;49543;45.892;10.838;2022-11-20T16:29:05;11.54;68.10
63407;SHT31;49543;45.892;10.838;2022-11-20T16:31:31;11.35;68.93
63407;SHT31;49543;45.892;10.838;2022-11-20T16:34:02;11.32;69.59
63407;SHT31;49543;45.892;10.838;2022-11-20T16:36:28;11.34;69.11
63407;SHT31;49543;45.892;10.838;2022-11-20T16:38:56;11.13;68.58
63407;SHT31;49543;45.892;10.838;2022-11-20T16:41:23;11.13;67.88
63407;SHT31;49543;45.892;10.838;2022-11-20T16:43:50;11.10;65.90
63407;SHT31;49543;45.892;10.838;2022-11-20T16:46:18;11.10;64.59
63407;SHT31;49543;45.892;10.838;2022-11-20T16:48:45;11.13;66.30
63407;SHT31;49543;45.892;10.838;2022-11-20T16:51:16;11.15;66.97
63407;SHT31;49543;45.892;10.838;2022-11-20T16:53:42;11.27;66.59
63407;SHT31;49543;45.892;10.838;2022-11-20T16:56:11;11.17;66.56
63407;SHT31;49543;45.892;10.838;2022-11-20T16:58:37;11.17;68.59
63407;SHT31;49543;45.892;10.838;2022-11-20T17:01:06;11.24;66.18
63407;SHT31;49543;45.892;10.838;2022-11-20T17:03:34;11.17;65.78
63407;SHT31;49543;45.892;10.838;2022-11-20T17:05:59;11.15;68.11
63407;SHT31;49543;45.892;10.838;2022-11-20T17:08:26;11.21;68.43
63407;SHT31;49543;45.892;10.838;2022-11-20T17:10:54;11.27;68.02
63407;SHT31;49543;45.892;10.838;2022-11-20T17:13:19;11.24;68.24
63407;SHT31;49543;45.892;10.838;2022-11-20T17:15:44;11.25;68.75
63407;SHT31;49543;45.892;10.838;2022-11-20T17:18:10;11.17;69.03
63407;SHT31;49543;45.892;10.838;2022-11-20T17:20:35;11.23;69.09
63407;SHT31;49543;45.892;10.838;2022-11-20T17:23:00;11.20;68.15
63407;SHT31;49543;45.892;10.838;2022-11-20T17:25:26;11.18;69.27
63407;SHT31;49543;45.892;10.838;2022-11-20T17:27:51;11.11;69.41
63407;SHT31;49543;45.892;10.838;2022-11-20T17:30:18;11.13;67.26
63407;SHT31;49543;45.892;10.838;2022-11-20T17:32:43;11.08;68.95
63407;SHT31;49543;45.892;10.838;2022-11-20T17:35:11;11.10;69.04
63407;SHT31;49543;45.892;10.838;2022-11-20T17:37:36;11.10;69.17
63407;SHT31;49543;45.892;10.838;2022-11-20T17:40:01;11.08;69.83
63407;SHT31;49543;45.892;10.838;2022-11-20T17:42:26;11.00;69.71
63407;SHT31;49543;45.892;10.838;2022-11-20T17:44:53;10.92;70.00
63407;SHT31;49543;45.892;10.838;2022-11-20T17:47:19;10.87;69.54
63407;SHT31;49543;45.892;10.838;2022-11-20T17:49:44;10.83;69.77
63407;SHT31;49543;45.892;10.838;2022-11-20T17:52:09;10.75;68.80
63407;SHT31;49543;45.892;10.838;2022-11-20T17:54:35;10.77;69.00
63407;SHT31;49543;45.892;10.838;2022-11-20T17:57:00;10.81;70.95
63407;SHT31;49543;45.892;10.838;2022-11-20T17:59:44;10.75;69.90
63407;SHT31;49543;45.892;10.838;2022-11-20T18:02:09;10.69;70.14
63407;SHT31;49543;45.892;10.838;2022-11-20T18:04:35;10.66;70.66
63407;SHT31;49543;45.892;10.838;2022-11-20T18:07:00;10.70;71.44
63407;SHT31;49543;45.892;10.838;2022-11-20T18:09:26;10.73;70.91
63407;SHT31;49543;45.892;10.838;2022-11-20T18:11:51;10.62;71.73
63407;SHT31;49543;45.892;10.838;2022-11-20T18:14:16;10.70;72.48
63407;SHT31;49543;45.892;10.838;2022-11-20T18:17:12;10.70;72.00
63407;SHT31;49543;45.892;10.838;2022-11-20T18:19:39;10.66;72.08
63407;SHT31;49543;45.892;10.838;2022-11-20T18:22:05;10.65;71.76
63407;SHT31;49543;45.892;10.838;2022-11-20T18:24:32;10.65;71.70
63407;SHT31;49543;45.892;10.838;2022-11-20T18:26:57;10.63;71.83
63407;SHT31;49543;45.892;10.838;2022-11-20T18:29:23;10.62;72.14
63407;SHT31;49543;45.892;10.838;2022-11-20T18:31:49;10.53;72.40
63407;SHT31;49543;45.892;10.838;2022-11-20T18:34:14;10.46;72.36
63407;SHT31;49543;45.892;10.838;2022-11-20T18:36:40;10.44;72.99
63407;SHT31;49543;45.892;10.838;2022-11-20T18:39:06;10.34;73.85
63407;SHT31;49543;45.892;10.838;2022-11-20T18:41:31;10.35;74.04
63407;SHT31;49543;45.892;10.838;2022-11-20T18:44:28;10.21;74.22
63407;SHT31;49543;45.892;10.838;2022-11-20T18:47:13;10.25;74.07
63407;SHT31;49543;45.892;10.838;2022-11-20T18:49:40;10.22;74.38
63407;SHT31;49543;45.892;10.838;2022-11-20T18:52:05;10.22;74.14
63407;SHT31;49543;45.892;10.838;2022-11-20T18:54:31;10.24;74.20
63407;SHT31;49543;45.892;10.838;2022-11-20T18:56:59;10.13;74.36
63407;SHT31;49543;45.892;10.838;2022-11-20T18:59:24;10.18;74.85
63407;SHT31;49543;45.892;10.838;2022-11-20T19:01:49;10.05;75.20
63407;SHT31;49543;45.892;10.838;2022-11-20T19:04:15;10.05;75.35
63407;SHT31;49543;45.892;10.838;2022-11-20T19:06:41;10.07;74.80
63407;SHT31;49543;45.892;10.838;2022-11-20T19:09:07;10.00;74.79
63407;SHT31;49543;45.892;10.838;2022-11-20T19:11:34;10.04;75.26
63407;SHT31;49543;45.892;10.838;2022-11-20T19:13:59;10.04;75.34
63407;SHT31;49543;45.892;10.838;2022-11-20T19:16:24;10.05;75.16
63407;SHT31;49543;45.892;10.838;2022-11-20T19:18:50;10.07;75.14
63407;SHT31;49543;45.892;10.838;2022-11-20T19:21:17;10.04;75.58
63407;SHT31;49543;45.892;10.838;2022-11-20T19:23:46;10.05;75.80
63407;SHT31;49543;45.892;10.838;2022-11-20T19:26:12;10.01;76.08
63407;SHT31;49543;45.892;10.838;2022-11-20T19:28:37;10.04;76.11
63407;SHT31;49543;45.892;10.838;2022-11-20T19:31:03;10.04;75.80
63407;SHT31;49543;45.892;10.838;2022-11-20T19:33:29;9.94;75.95
63407;SHT31;49543;45.892;10.838;2022-11-20T19:35:54;9.98;75.95
63407;SHT31;49543;45.892;10.838;2022-11-20T19:38:20;9.97;75.76
63407;SHT31;49543;45.892;10.838;2022-11-20T19:40:45;9.89;75.57
63407;SHT31;49543;45.892;10.838;2022-11-20T19:43:10;9.86;76.94
63407;SHT31;49543;45.892;10.838;2022-11-20T19:45:36;9.83;76.86
63407;SHT31;49543;45.892;10.838;2022-11-20T19:48:01;9.83;76.57
63407;SHT31;49543;45.892;10.838;2022-11-20T19:50:26;9.82;76.99
63407;SHT31;49543;45.892;10.838;2022-11-20T19:52:52;9.82;76.91
63407;SHT31;49543;45.892;10.838;2022-11-20T19:55:17;9.76;76.94
63407;SHT31;49543;45.892;10.838;2022-11-20T19:57:42;9.77;77.14
63407;SHT31;49543;45.892;10.838;2022-11-20T20:00:08;9.75;77.23
63407;SHT31;49543;45.892;10.838;2022-11-20T20:02:33;9.75;77.37
63407;SHT31;49543;45.892;10.838;2022-11-20T20:04:59;9.75;77.37
63407;SHT31;49543;45.892;10.838;2022-11-20T20:07:24;9.76;77.22
63407;SHT31;49543;45.892;10.838;2022-11-20T20:09:50;9.73;77.29
63407;SHT31;49543;45.892;10.838;2022-11-20T20:12:15;9.63;77.22
63407;SHT31;49543;45.892;10.838;2022-11-20T20:14:40;9.60;76.97
63407;SHT31;49543;45.892;10.838;2022-11-20T20:17:05;9.67;76.67
63407;SHT31;49543;45.892;10.838;2022-11-20T20:19:31;9.60;76.49
63407;SHT31;49543;45.892;10.838;2022-11-20T20:21:56;9.55;77.03
63407;SHT31;49543;45.892;10.838;2022-11-20T20:24:21;9.48;77.44
63407;SHT31;49543;45.892;10.838;2022-11-20T20:26:47;9.50;77.44
63407;SHT31;49543;45.892;10.838;2022-11-20T20:29:12;9.53;77.18
63407;SHT31;49543;45.892;10.838;2022-11-20T20:31:38;9.52;77.48
63407;SHT31;49543;45.892;10.838;2022-11-20T20:34:04;9.53;77.49
63407;SHT31;49543;45.892;10.838;2022-11-20T20:36:30;9.53;77.84
63407;SHT31;49543;45.892;10.838;2022-11-20T20:38:55;9.55;77.53
63407;SHT31;49543;45.892;10.838;2022-11-20T20:41:23;9.53;77.70
63407;SHT31;49543;45.892;10.838;2022-11-20T20:43:49;9.50;77.74
63407;SHT31;49543;45.892;10.838;2022-11-20T20:46:32;9.50;77.26
63407;SHT31;49543;45.892;10.838;2022-11-20T20:48:57;9.42;77.52
63407;SHT31;49543;45.892;10.838;2022-11-20T20:51:23;9.29;77.48
63407;SHT31;49543;45.892;10.838;2022-11-20T20:53:49;9.25;77.90
63407;SHT31;49543;45.892;10.838;2022-11-20T20:56:14;9.17;78.11
63407;SHT31;49543;45.892;10.838;2022-11-20T20:58:40;9.14;78.76
63407;SHT31;49543;45.892;10.838;2022-11-20T21:01:12;9.15;79.07
63407;SHT31;49543;45.892;10.838;2022-11-20T21:03:37;9.11;79.07
63407;SHT31;49543;45.892;10.838;2022-11-20T21:06:03;9.15;79.04
63407;SHT31;49543;45.892;10.838;2022-11-20T21:08:29;9.22;78.71
63407;SHT31;49543;45.892;10.838;2022-11-20T21:10:59;9.15;78.87
63407;SHT31;49543;45.892;10.838;2022-11-20T21:13:25;9.07;77.80
63407;SHT31;49543;45.892;10.838;2022-11-20T21:15:50;8.97;78.60
63407;SHT31;49543;45.892;10.838;2022-11-20T21:18:17;8.96;78.62
63407;SHT31;49543;45.892;10.838;2022-11-20T21:20:43;8.96;78.61
63407;SHT31;49543;45.892;10.838;2022-11-20T21:23:27;9.01;78.52
63407;SHT31;49543;45.892;10.838;2022-11-20T21:25:52;9.03;78.48
63407;SHT31;49543;45.892;10.838;2022-11-20T21:28:18;9.07;78.27
63407;SHT31;49543;45.892;10.838;2022-11-20T21:30:43;9.10;78.14
63407;SHT31;49543;45.892;10.838;2022-11-20T21:33:08;9.10;77.73
63407;SHT31;49543;45.892;10.838;2022-11-20T21:35:34;9.11;78.19
63407;SHT31;49543;45.892;10.838;2022-11-20T21:37:59;9.04;77.95
63407;SHT31;49543;45.892;10.838;2022-11-20T21:40:25;9.05;78.49
63407;SHT31;49543;45.892;10.838;2022-11-20T21:42:51;9.07;78.54
63407;SHT31;49543;45.892;10.838;2022-11-20T21:45:17;9.11;78.56
63407;SHT31;49543;45.892;10.838;2022-11-20T21:47:42;9.14;78.48
63407;SHT31;49543;45.892;10.838;2022-11-20T21:50:07;9.19;78.20
63407;SHT31;49543;45.892;10.838;2022-11-20T21:52:33;9.15;78.11
63407;SHT31;49543;45.892;10.838;2022-11-20T21:54:58;9.12;78.25
63407;SHT31;49543;45.892;10.838;2022-11-20T21:57:23;9.04;77.74
63407;SHT31;49543;45.892;10.838;2022-11-20T21:59:49;9.00;78.63
63407;SHT31;49543;45.892;10.838;2022-11-20T22:02:14;8.97;78.64
63407;SHT31;49543;45.892;10.838;2022-11-20T22:04:39;9.00;78.48
63407;SHT31;49543;45.892;10.838;2022-11-20T22:07:05;8.91;78.65
63407;SHT31;49543;45.892;10.838;2022-11-20T22:09:31;8.99;78.61
63407;SHT31;49543;45.892;10.838;2022-11-20T22:11:56;8.96;79.09
63407;SHT31;49543;45.892;10.838;2022-11-20T22:14:21;8.97;79.35
63407;SHT31;49543;45.892;10.838;2022-11-20T22:16:47;8.97;78.90
63407;SHT31;49543;45.892;10.838;2022-11-20T22:19:17;8.99;79.14
63407;SHT31;49543;45.892;10.838;2022-11-20T22:21:43;9.03;78.03
63407;SHT31;49543;45.892;10.838;2022-11-20T22:24:12;9.08;77.35
63407;SHT31;49543;45.892;10.838;2022-11-20T22:26:38;9.07;78.13
63407;SHT31;49543;45.892;10.838;2022-11-20T22:29:03;9.10;77.97
63407;SHT31;49543;45.892;10.838;2022-11-20T22:31:28;9.14;77.56
63407;SHT31;49543;45.892;10.838;2022-11-20T22:33:54;9.22;76.92
63407;SHT31;49543;45.892;10.838;2022-11-20T22:36:20;9.25;76.54
63407;SHT31;49543;45.892;10.838;2022-11-20T22:38:46;9.28;76.95
63407;SHT31;49543;45.892;10.838;2022-11-20T22:41:16;9.24;76.81
63407;SHT31;49543;45.892;10.838;2022-11-20T22:43:41;9.27;77.28
63407;SHT31;49543;45.892;10.838;2022-11-20T22:46:08;9.29;76.81
63407;SHT31;49543;45.892;10.838;2022-11-20T22:48:34;9.36;76.88
63407;SHT31;49543;45.892;10.838;2022-11-20T22:51:04;9.35;77.39
63407;SHT31;49543;45.892;10.838;2022-11-20T22:53:29;9.39;76.94
63407;SHT31;49543;45.892;10.838;2022-11-20T22:55:55;9.36;76.92
63407;SHT31;49543;45.892;10.838;2022-11-20T22:58:20;9.32;76.58
63407;SHT31;49543;45.892;10.838;2022-11-20T23:00:45;9.35;77.15
63407;SHT31;49543;45.892;10.838;2022-11-20T23:03:11;9.34;77.99
63407;SHT31;49543;45.892;10.838;2022-11-20T23:05:36;9.38;77.90
63407;SHT31;49543;45.892;10.838;2022-11-20T23:08:01;9.40;77.57
63407;SHT31;49543;45.892;10.838;2022-11-20T23:10:27;9.34;78.28
63407;SHT31;49543;45.892;10.838;2022-11-20T23:12:52;9.36;78.73
63407;SHT31;49543;45.892;10.838;2022-11-20T23:15:18;9.35;77.77
63407;SHT31;49543;45.892;10.838;2022-11-20T23:17:43;9.35;77.65
63407;SHT31;49543;45.892;10.838;2022-11-20T23:20:08;9.34;77.07
